Time;durP1;ratioP1;P1;durP2;ratioP2;P2;SDS_P1;SDS_P2;PMS_P1;PMS_P2;Temp;Humidity;BMP_temperature;BMP_pressure;BME280_temperature;BME280_humidity;BME280_pressure;Samples;Min_cycle;Max_cycle;Signal;HPM_P1;HPM_P2
2022/07/09 00:00:11;;;;;;;1.60;0.50;;;19.70;92.70;;;;;;5056328;28;20021;-92
2022/07/09 00:02:37;;;;;;;2.95;0.60;;;19.70;92.10;;;;;;5055500;28;20499;-91
2022/07/09 00:05:03;;;;;;;3.60;0.35;;;19.70;92.30;;;;;;5055577;28;20111;-90
2022/07/09 00:07:29;;;;;;;3.78;0.50;;;19.70;92.30;;;;;;5055527;28;20033;-91
2022/07/09 00:09:54;;;;;;;2.40;0.50;;;19.70;92.30;;;;;;5055273;28;20499;-92
2022/07/09 00:12:20;;;;;;;3.53;0.50;;;19.70;92.30;;;;;;5073744;28;20053;-93
2022/07/09 00:14:46;;;;;;;3.30;0.40;;;19.70;92.30;;;;;;5056519;28;20047;-93
2022/07/09 00:17:12;;;;;;;3.15;0.50;;;19.70;92.10;;;;;;5055747;28;20024;-89
2022/07/09 00:19:38;;;;;;;4.63;0.50;;;19.80;92.10;;;;;;5055825;28;20052;-87
2022/07/09 00:22:05;;;;;;;4.93;0.68;;;19.80;92.20;;;;;;5054703;28;20523;-91
2022/07/09 00:24:31;;;;;;;2.70;0.55;;;19.70;92.40;;;;;;5054898;28;20025;-93
2022/07/09 00:26:57;;;;;;;2.53;0.43;;;19.60;92.60;;;;;;5056029;28;20024;-91
2022/07/09 00:29:23;;;;;;;5.72;0.50;;;19.60;92.70;;;;;;5056101;28;20480;-92
2022/07/09 00:31:48;;;;;;;2.03;0.50;;;19.50;93.00;;;;;;5070187;28;20063;-92
2022/07/09 00:34:14;;;;;;;3.92;0.40;;;19.50;93.00;;;;;;5071051;28;20059;-92
2022/07/09 00:36:40;;;;;;;5.68;0.40;;;19.50;93.00;;;;;;5054964;28;20021;-92
2022/07/09 00:39:05;;;;;;;1.02;0.40;;;19.40;93.50;;;;;;5072924;28;20060;-93
2022/07/09 00:41:31;;;;;;;2.75;0.50;;;19.30;93.30;;;;;;5073199;28;20032;-92
2022/07/09 00:43:56;;;;;;;1.48;0.40;;;19.40;93.50;;;;;;5072753;28;20603;-91
2022/07/09 00:46:22;;;;;;;2.05;0.55;;;19.40;93.20;;;;;;5092861;28;20024;-92
2022/07/09 00:48:48;;;;;;;1.25;0.50;;;19.40;93.40;;;;;;5093858;28;20031;-92
2022/07/09 00:51:16;;;;;;;4.93;0.50;;;19.40;93.40;;;;;;5076011;28;20397;-92
2022/07/09 00:53:42;;;;;;;2.17;0.52;;;19.30;93.40;;;;;;5059561;28;20025;-90
2022/07/09 00:56:08;;;;;;;2.30;0.60;;;19.30;93.50;;;;;;5054912;28;20025;-92
2022/07/09 00:58:36;;;;;;;2.75;0.47;;;19.30;93.50;;;;;;5055092;28;20045;-93
2022/07/09 01:01:01;;;;;;;2.00;0.50;;;19.30;93.50;;;;;;5063396;28;20020;-91
2022/07/09 01:03:27;;;;;;;3.35;0.40;;;19.30;93.70;;;;;;5074873;28;20122;-92
2022/07/09 01:05:55;;;;;;;1.58;0.52;;;19.40;93.70;;;;;;5075104;28;20052;-92
2022/07/09 01:08:21;;;;;;;1.38;0.40;;;19.30;93.50;;;;;;5075312;28;20028;-93
2022/07/09 01:10:50;;;;;;;2.25;0.43;;;19.30;93.30;;;;;;5075389;28;20026;-91
2022/07/09 01:13:16;;;;;;;2.17;0.30;;;19.30;93.50;;;;;;5092272;28;20024;-91
2022/07/09 01:15:42;;;;;;;2.85;0.60;;;19.30;93.70;;;;;;5075123;28;20027;-93
2022/07/09 01:18:12;;;;;;;4.88;0.40;;;19.30;93.70;;;;;;5057117;28;20024;-91
2022/07/09 01:20:37;;;;;;;2.95;0.60;;;19.20;94.00;;;;;;5069114;28;20029;-96
2022/07/09 01:23:03;;;;;;;2.92;0.57;;;19.10;94.30;;;;;;5062801;28;20232;-94
2022/07/09 01:25:43;;;;;;;4.00;0.55;;;18.90;94.60;;;;;;5056010;28;20641;-96
2022/07/09 01:28:10;;;;;;;6.35;0.60;;;18.90;94.80;;;;;;5058912;28;20123;-96
2022/07/09 01:30:38;;;;;;;1.15;0.40;;;18.80;95.00;;;;;;5055877;28;20190;-96
2022/07/09 01:33:04;;;;;;;1.35;0.43;;;18.70;95.20;;;;;;5055552;28;20037;-94
2022/07/09 01:35:31;;;;;;;5.07;0.40;;;18.60;95.40;;;;;;5066712;28;20020;-96
2022/07/09 01:37:57;;;;;;;1.40;0.40;;;18.60;95.60;;;;;;5058745;28;20101;-96
2022/07/09 01:40:23;;;;;;;1.08;0.63;;;18.50;95.80;;;;;;5055102;28;20115;-93
2022/07/09 01:42:49;;;;;;;2.88;0.60;;;18.40;96.10;;;;;;5054586;28;20583;-92
2022/07/09 01:45:16;;;;;;;1.90;0.50;;;18.40;96.60;;;;;;5054204;28;20115;-91
2022/07/09 01:47:42;;;;;;;3.67;0.70;;;18.30;96.40;;;;;;5054375;28;20025;-89
2022/07/09 01:50:08;;;;;;;2.00;0.43;;;18.30;96.40;;;;;;5071846;28;20020;-90
2022/07/09 01:52:34;;;;;;;1.27;0.38;;;18.30;96.60;;;;;;5053625;28;20028;-89
2022/07/09 01:55:00;;;;;;;3.70;0.50;;;18.30;97.00;;;;;;5071227;28;20027;-89
2022/07/09 01:57:26;;;;;;;6.28;0.45;;;18.20;97.30;;;;;;5053202;28;20443;-89
2022/07/09 01:59:52;;;;;;;1.77;0.50;;;18.20;97.40;;;;;;5073485;28;20028;-88
2022/07/09 02:02:18;;;;;;;6.18;0.75;;;18.20;97.50;;;;;;5058423;28;20036;-89
2022/07/09 02:04:46;;;;;;;1.15;0.40;;;18.10;97.70;;;;;;5065010;28;20059;-90
2022/07/09 02:07:13;;;;;;;1.23;0.65;;;18.10;97.90;;;;;;5071423;28;20024;-87
2022/07/09 02:09:39;;;;;;;5.57;0.50;;;18.10;98.00;;;;;;5053351;28;20021;-86
2022/07/09 02:12:05;;;;;;;2.17;0.60;;;18.00;98.10;;;;;;5052500;28;20071;-87
2022/07/09 02:14:31;;;;;;;5.57;0.70;;;18.00;98.30;;;;;;5055782;28;20029;-87
2022/07/09 02:16:57;;;;;;;3.50;0.70;;;17.90;98.40;;;;;;5053543;28;20403;-87
2022/07/09 02:19:23;;;;;;;2.80;0.73;;;17.90;98.30;;;;;;5053565;28;20032;-87
2022/07/09 02:21:48;;;;;;;3.80;1.42;;;17.90;98.30;;;;;;5058082;28;20028;-87
2022/07/09 02:24:14;;;;;;;6.28;0.60;;;17.80;98.70;;;;;;5072696;28;20068;-87
2022/07/09 02:26:40;;;;;;;11.80;0.60;;;17.80;99.10;;;;;;5077305;28;20024;-86
2022/07/09 02:29:06;;;;;;;2.25;0.50;;;17.80;99.40;;;;;;5076136;28;20077;-85
2022/07/09 02:31:32;;;;;;;1.27;0.60;;;17.80;99.70;;;;;;5076919;28;20020;-87
2022/07/09 02:33:58;;;;;;;2.72;0.82;;;17.70;99.80;;;;;;5093293;28;20056;-86
2022/07/09 02:36:24;;;;;;;9.55;1.15;;;17.70;99.90;;;;;;5071123;28;20048;-86
2022/07/09 02:38:49;;;;;;;1.65;0.82;;;17.70;99.90;;;;;;5056734;28;20028;-86
2022/07/09 02:41:15;;;;;;;6.60;0.68;;;17.60;99.90;;;;;;5074195;28;20021;-89
2022/07/09 02:43:43;;;;;;;2.10;0.68;;;17.60;99.90;;;;;;5075731;28;20137;-90
2022/07/09 02:46:10;;;;;;;3.10;0.63;;;17.60;99.90;;;;;;5058081;28;20032;-91
2022/07/09 02:48:35;;;;;;;2.35;0.73;;;17.60;99.90;;;;;;5075332;28;20033;-89
2022/07/09 02:51:01;;;;;;;1.48;0.50;;;17.60;99.90;;;;;;5057577;28;20499;-91
2022/07/09 02:53:27;;;;;;;2.20;0.70;;;17.60;99.90;;;;;;5075194;28;20020;-92
2022/07/09 02:55:53;;;;;;;2.78;0.90;;;17.50;99.90;;;;;;5058393;28;20465;-94
2022/07/09 02:58:19;;;;;;;7.53;0.60;;;17.50;99.90;;;;;;5057728;28;20040;-90
2022/07/09 03:00:44;;;;;;;2.00;0.85;;;17.50;99.90;;;;;;5057982;28;20067;-93
2022/07/09 03:03:10;;;;;;;3.50;0.70;;;17.50;99.90;;;;;;5057588;28;20037;-91
2022/07/09 03:05:36;;;;;;;3.88;0.85;;;17.50;99.90;;;;;;5074742;28;20060;-86
2022/07/09 03:08:02;;;;;;;1.83;0.68;;;17.50;99.90;;;;;;5073947;28;20032;-90
2022/07/09 03:10:28;;;;;;;5.47;0.70;;;17.50;99.90;;;;;;5056797;28;20067;-88
2022/07/09 03:12:53;;;;;;;2.58;0.60;;;17.50;99.90;;;;;;5056678;28;20048;-90
2022/07/09 03:15:19;;;;;;;3.13;0.70;;;17.50;99.90;;;;;;5057290;28;20052;-94
2022/07/09 03:17:46;;;;;;;6.30;0.73;;;17.50;99.90;;;;;;5057009;28;20173;-95
2022/07/09 03:20:12;;;;;;;5.10;1.23;;;17.50;99.90;;;;;;5067711;28;20005;-96
2022/07/09 03:22:38;;;;;;;1.65;0.60;;;17.50;99.90;;;;;;5074702;28;20040;-94
2022/07/09 03:25:05;;;;;;;3.45;0.70;;;17.50;99.90;;;;;;5058770;28;20557;-95
2022/07/09 03:27:31;;;;;;;2.33;0.68;;;17.60;99.90;;;;;;5057037;28;20051;-93
2022/07/09 03:29:56;;;;;;;1.77;0.63;;;17.70;99.90;;;;;;5056566;28;20049;-95
2022/07/09 03:32:22;;;;;;;3.90;0.77;;;17.90;99.90;;;;;;5057199;28;20036;-94
2022/07/09 03:34:48;;;;;;;2.95;0.80;;;18.00;99.90;;;;;;5060289;28;20025;-96
2022/07/09 03:37:14;;;;;;;3.30;0.82;;;18.00;99.90;;;;;;5056704;28;20061;-92
2022/07/09 03:39:40;;;;;;;3.00;0.85;;;18.10;99.90;;;;;;5055679;28;20021;-89
2022/07/09 03:42:06;;;;;;;3.83;1.15;;;18.20;98.80;;;;;;5072526;28;20610;-91
2022/07/09 03:44:33;;;;;;;2.05;0.95;;;18.30;99.10;;;;;;5052711;28;20024;-94
2022/07/09 03:47:00;;;;;;;5.35;1.02;;;18.30;99.10;;;;;;5055648;28;20037;-92
2022/07/09 03:49:26;;;;;;;4.80;0.98;;;18.30;99.00;;;;;;5056224;28;20023;-93
2022/07/09 03:51:52;;;;;;;4.90;0.93;;;18.40;99.20;;;;;;5073694;28;20111;-95
2022/07/09 03:54:17;;;;;;;3.28;0.98;;;18.30;98.80;;;;;;5077632;28;20036;-95
2022/07/09 03:56:43;;;;;;;2.60;1.02;;;18.30;98.70;;;;;;5053810;28;20060;-94
2022/07/09 03:59:09;;;;;;;4.57;0.80;;;18.30;98.70;;;;;;5053391;28;20056;-92
2022/07/09 04:01:34;;;;;;;3.90;0.80;;;18.40;97.70;;;;;;5052200;28;20025;-92
2022/07/09 04:04:00;;;;;;;5.18;1.05;;;18.50;97.20;;;;;;5052322;28;20025;-90
2022/07/09 04:06:26;;;;;;;4.57;0.82;;;18.40;98.20;;;;;;5052470;28;20378;-93
2022/07/09 04:08:52;;;;;;;3.40;0.90;;;18.50;98.50;;;;;;5053684;28;20025;-94
2022/07/09 04:11:17;;;;;;;4.88;0.65;;;18.50;97.70;;;;;;5052176;28;20628;-90
2022/07/09 04:13:43;;;;;;;1.70;0.85;;;18.50;98.10;;;;;;5051475;28;20021;-88
2022/07/09 04:16:09;;;;;;;3.05;0.90;;;18.50;97.80;;;;;;5051540;28;20124;-89
2022/07/09 04:18:35;;;;;;;4.32;0.93;;;18.70;97.20;;;;;;5051367;28;20056;-91
2022/07/09 04:21:01;;;;;;;2.63;0.95;;;18.90;97.00;;;;;;5050516;28;20025;-90
2022/07/09 04:23:27;;;;;;;3.90;1.08;;;19.10;96.50;;;;;;5051820;28;20408;-89
2022/07/09 04:25:53;;;;;;;3.28;1.00;;;19.30;96.50;;;;;;5051408;28;20021;-87
2022/07/09 04:28:20;;;;;;;2.30;0.57;;;19.40;96.20;;;;;;5053248;28;20071;-91
2022/07/09 04:30:46;;;;;;;2.28;0.88;;;19.60;95.80;;;;;;5039904;28;20033;-92
2022/07/09 04:33:12;;;;;;;2.40;0.70;;;19.70;95.20;;;;;;5035624;28;20044;-89
2022/07/09 04:35:38;;;;;;;6.85;0.98;;;19.70;95.00;;;;;;5018534;28;20044;-90
2022/07/09 04:38:03;;;;;;;4.30;0.68;;;19.80;94.70;;;;;;5044686;28;20667;-92
2022/07/09 04:40:29;;;;;;;4.05;1.13;;;19.80;94.60;;;;;;5042173;28;20052;-92
2022/07/09 04:42:54;;;;;;;2.80;0.70;;;19.80;94.20;;;;;;5027321;28;20111;-92
2022/07/09 04:45:20;;;;;;;3.88;1.27;;;19.80;94.60;;;;;;5043706;28;20095;-90
2022/07/09 04:47:46;;;;;;;5.18;1.00;;;19.80;94.70;;;;;;5031540;28;20119;-92
2022/07/09 04:50:11;;;;;;;3.05;1.00;;;19.70;95.10;;;;;;5035005;28;20044;-91
2022/07/09 04:52:38;;;;;;;2.72;1.00;;;19.70;95.30;;;;;;5027413;28;20041;-88
2022/07/09 04:55:05;;;;;;;3.13;0.80;;;19.70;95.20;;;;;;5039194;28;20037;-89
2022/07/09 04:57:31;;;;;;;1.70;0.70;;;19.80;95.10;;;;;;5018982;28;20060;-90
2022/07/09 05:00:01;;;;;;;2.38;0.88;;;20.00;94.60;;;;;;5024787;28;20030;-92
2022/07/09 05:02:27;;;;;;;9.30;1.23;;;20.20;94.00;;;;;;5014198;28;20040;-92
2022/07/09 05:04:53;;;;;;;2.63;0.90;;;20.40;93.80;;;;;;4995103;28;20029;-92
2022/07/09 05:07:18;;;;;;;5.10;0.77;;;20.50;93.60;;;;;;5030617;28;20068;-93
2022/07/09 05:09:44;;;;;;;5.60;0.88;;;20.60;92.90;;;;;;5030889;28;20021;-93
2022/07/09 05:12:12;;;;;;;2.83;0.73;;;20.70;93.20;;;;;;5032577;28;20036;-91
2022/07/09 05:14:38;;;;;;;1.52;0.70;;;21.00;92.50;;;;;;5014572;28;20108;-92
2022/07/09 05:17:05;;;;;;;3.97;0.70;;;21.20;92.00;;;;;;5030037;28;20079;-92
2022/07/09 05:19:31;;;;;;;2.25;0.70;;;21.10;92.10;;;;;;5030873;28;20623;-92
2022/07/09 05:21:57;;;;;;;4.75;0.82;;;21.10;91.50;;;;;;5049837;28;20041;-91
2022/07/09 05:24:23;;;;;;;2.42;0.70;;;21.20;91.60;;;;;;5054928;28;20040;-92
2022/07/09 05:26:49;;;;;;;2.17;0.90;;;21.30;91.60;;;;;;5051355;28;20036;-92
2022/07/09 05:29:16;;;;;;;2.55;0.60;;;21.70;90.80;;;;;;5051009;28;20021;-92
2022/07/09 05:31:42;;;;;;;5.95;0.82;;;21.90;90.50;;;;;;5051728;28;20020;-88
2022/07/09 05:34:07;;;;;;;1.58;0.50;;;22.10;90.20;;;;;;5052857;28;20082;-91
2022/07/09 05:36:34;;;;;;;4.00;1.00;;;22.20;89.80;;;;;;5051573;28;20104;-89
2022/07/09 05:39:00;;;;;;;3.50;0.90;;;22.20;89.90;;;;;;5034169;28;20040;-90
2022/07/09 05:41:26;;;;;;;5.57;0.70;;;22.30;90.00;;;;;;5052406;28;20021;-90
2022/07/09 05:43:53;;;;;;;2.28;1.00;;;22.20;88.50;;;;;;5051901;28;20025;-90
2022/07/09 05:46:19;;;;;;;4.30;0.98;;;22.10;89.30;;;;;;5052417;28;20070;-89
2022/07/09 05:48:45;;;;;;;4.38;0.68;;;22.00;89.90;;;;;;5056534;28;20040;-89
2022/07/09 05:51:11;;;;;;;3.25;0.70;;;21.90;90.10;;;;;;5055601;28;20550;-90
2022/07/09 05:53:37;;;;;;;4.47;0.70;;;21.80;90.10;;;;;;5055763;28;20033;-90
2022/07/09 05:56:02;;;;;;;5.05;0.80;;;21.60;90.30;;;;;;5071269;28;20021;-91
2022/07/09 05:58:28;;;;;;;1.70;0.70;;;21.50;90.30;;;;;;5085449;28;20063;-92
2022/07/09 06:00:54;;;;;;;3.03;0.77;;;21.50;90.50;;;;;;5080903;28;20035;-90
2022/07/09 06:03:19;;;;;;;4.80;0.70;;;22.20;88.50;;;;;;5080650;28;20047;-91
2022/07/09 06:05:45;;;;;;;3.25;0.80;;;23.70;85.20;;;;;;5079673;28;20035;-93
2022/07/09 06:08:12;;;;;;;2.63;0.80;;;25.70;78.30;;;;;;5080385;28;20032;-93
2022/07/09 06:10:37;;;;;;;2.17;0.65;;;27.60;69.00;;;;;;5080730;28;20488;-92
2022/07/09 06:13:03;;;;;;;3.95;0.60;;;28.90;63.10;;;;;;5079856;28;20025;-92
2022/07/09 06:15:29;;;;;;;6.38;1.30;;;29.90;55.80;;;;;;5080312;28;20613;-90
2022/07/09 06:17:54;;;;;;;1.63;1.17;;;30.80;52.10;;;;;;5098361;28;20031;-91
2022/07/09 06:20:20;;;;;;;2.17;0.80;;;31.20;48.20;;;;;;5079985;28;20059;-91
2022/07/09 06:22:46;;;;;;;2.58;0.88;;;31.70;46.10;;;;;;5079859;28;20127;-91
2022/07/09 06:25:12;;;;;;;1.50;0.75;;;32.00;44.40;;;;;;5080314;28;20047;-93
2022/07/09 06:27:40;;;;;;;2.33;0.80;;;32.00;43.60;;;;;;5080453;28;20049;-91
2022/07/09 06:30:07;;;;;;;2.53;0.90;;;31.90;43.40;;;;;;5060899;28;20021;-91
2022/07/09 06:32:32;;;;;;;2.67;1.17;;;32.20;42.40;;;;;;5059959;28;20028;-91
2022/07/09 06:34:58;;;;;;;1.95;0.90;;;32.50;41.60;;;;;;5059613;28;20036;-90
2022/07/09 06:37:24;;;;;;;6.15;0.88;;;32.60;40.90;;;;;;5073284;28;20140;-91
2022/07/09 06:39:50;;;;;;;2.25;1.10;;;32.30;41.50;;;;;;5079541;28;20051;-90
2022/07/09 06:42:17;;;;;;;2.80;0.95;;;32.10;41.40;;;;;;5080215;28;20028;-90
2022/07/09 06:44:44;;;;;;;1.60;0.82;;;32.50;40.70;;;;;;5079824;28;20046;-92
2022/07/09 06:47:10;;;;;;;3.83;1.10;;;32.70;40.20;;;;;;5079560;28;20476;-91
2022/07/09 06:49:36;;;;;;;1.67;0.52;;;33.20;40.60;;;;;;5097940;28;20020;-89
2022/07/09 06:52:03;;;;;;;1.67;0.63;;;33.30;39.30;;;;;;5077065;28;20177;-90
2022/07/09 06:54:28;;;;;;;2.60;0.75;;;33.70;37.90;;;;;;5077404;28;20036;-93
2022/07/09 06:56:56;;;;;;;6.07;0.98;;;34.50;36.50;;;;;;5079359;28;20523;-90
2022/07/09 06:59:22;;;;;;;2.78;0.75;;;33.80;35.90;;;;;;5079376;28;20111;-90
2022/07/09 07:01:49;;;;;;;1.85;0.95;;;33.10;37.20;;;;;;5079224;28;20442;-89
2022/07/09 07:04:14;;;;;;;2.47;1.00;;;32.90;37.60;;;;;;5079384;28;20522;-93
2022/07/09 07:06:46;;;;;;;6.78;0.80;;;33.10;37.30;;;;;;5079674;28;20123;-93
2022/07/09 07:09:12;;;;;;;5.82;0.70;;;33.70;35.80;;;;;;5079635;28;20027;-92
2022/07/09 07:11:37;;;;;;;3.80;1.00;;;32.70;36.70;;;;;;5078020;28;20543;-91
2022/07/09 07:14:03;;;;;;;2.85;0.85;;;32.80;36.90;;;;;;5076306;28;20119;-93
2022/07/09 07:16:29;;;;;;;3.05;0.80;;;32.60;36.70;;;;;;5076247;28;20053;-92
2022/07/09 07:18:54;;;;;;;4.72;0.82;;;32.60;36.50;;;;;;5076008;28;20050;-90
2022/07/09 07:21:20;;;;;;;2.50;0.88;;;32.50;37.60;;;;;;5073477;28;20020;-91
2022/07/09 07:23:46;;;;;;;1.77;0.70;;;32.90;36.80;;;;;;5066140;28;20036;-89
2022/07/09 07:26:11;;;;;;;2.72;1.27;;;33.10;35.40;;;;;;5057980;28;20031;-89
2022/07/09 07:28:37;;;;;;;3.38;0.88;;;32.80;35.50;;;;;;5056242;28;20032;-89
2022/07/09 07:31:03;;;;;;;2.67;0.73;;;32.80;35.60;;;;;;5073581;28;20203;-90
2022/07/09 07:33:28;;;;;;;1.55;0.70;;;32.50;35.50;;;;;;5056048;28;20028;-91
2022/07/09 07:35:54;;;;;;;2.78;0.95;;;32.10;35.80;;;;;;5055539;28;20036;-89
2022/07/09 07:38:19;;;;;;;2.38;0.80;;;31.80;36.90;;;;;;5055774;28;20025;-88
2022/07/09 07:40:45;;;;;;;1.85;0.85;;;31.80;37.80;;;;;;5054349;28;20038;-90
2022/07/09 07:43:11;;;;;;;3.85;0.70;;;31.60;37.70;;;;;;5054752;28;20032;-89
2022/07/09 07:45:38;;;;;;;3.67;0.70;;;31.60;37.40;;;;;;5071788;28;20044;-89
2022/07/09 07:48:03;;;;;;;3.47;0.82;;;31.80;35.10;;;;;;5054824;28;20048;-89
2022/07/09 07:50:29;;;;;;;4.05;0.88;;;31.10;36.70;;;;;;5042370;28;20041;-89
2022/07/09 07:52:56;;;;;;;4.50;0.90;;;30.70;37.20;;;;;;5034619;28;20037;-90
2022/07/09 07:55:22;;;;;;;2.20;0.68;;;30.00;38.30;;;;;;5043936;28;20029;-90
2022/07/09 07:57:48;;;;;;;2.20;0.80;;;30.00;38.70;;;;;;5031306;28;20052;-91
2022/07/09 08:00:14;;;;;;;2.10;0.70;;;29.90;38.70;;;;;;5054072;28;20057;-91
2022/07/09 08:02:39;;;;;;;4.03;1.00;;;30.30;39.10;;;;;;5033554;28;20123;-91
2022/07/09 08:05:06;;;;;;;2.08;0.60;;;31.20;38.80;;;;;;5030469;28;20033;-88
2022/07/09 08:07:32;;;;;;;7.43;0.90;;;31.80;37.80;;;;;;5050102;28;20530;-90
2022/07/09 08:09:57;;;;;;;3.33;0.88;;;32.30;37.00;;;;;;5046831;28;20071;-89
2022/07/09 08:12:23;;;;;;;4.10;0.70;;;32.60;35.90;;;;;;5047945;28;20056;-90
2022/07/09 08:14:49;;;;;;;2.60;0.90;;;32.60;35.90;;;;;;5047263;28;20052;-89
2022/07/09 08:17:14;;;;;;;4.57;1.17;;;33.20;34.50;;;;;;5044097;28;20489;-90
2022/07/09 08:19:40;;;;;;;3.85;0.70;;;33.30;34.90;;;;;;5053991;28;20032;-90
2022/07/09 08:22:06;;;;;;;2.83;0.70;;;33.70;34.00;;;;;;5073400;28;20024;-91
2022/07/09 08:24:31;;;;;;;2.78;0.90;;;34.00;33.90;;;;;;5074632;28;20112;-91
2022/07/09 08:26:58;;;;;;;6.75;0.70;;;33.90;34.60;;;;;;5075182;28;20025;-89
2022/07/09 08:29:24;;;;;;;4.07;1.00;;;34.00;33.10;;;;;;5074406;28;20031;-89
2022/07/09 08:31:50;;;;;;;3.50;1.00;;;33.30;33.90;;;;;;5075242;28;20086;-89
2022/07/09 08:34:16;;;;;;;3.47;0.90;;;32.40;34.40;;;;;;5074603;28;20446;-90
2022/07/09 08:36:42;;;;;;;1.55;0.60;;;31.50;35.70;;;;;;5075031;28;20109;-90
2022/07/09 08:39:07;;;;;;;2.53;0.60;;;31.30;36.50;;;;;;5092917;28;20032;-89
2022/07/09 08:41:33;;;;;;;3.92;0.65;;;31.30;37.00;;;;;;5074206;28;20028;-90
2022/07/09 08:44:04;;;;;;;6.75;1.08;;;31.20;36.60;;;;;;5074394;28;20101;-91
2022/07/09 08:46:32;;;;;;;5.82;1.05;;;30.90;36.90;;;;;;5074177;28;20510;-90
2022/07/09 08:49:00;;;;;;;4.32;0.80;;;31.30;38.10;;;;;;5074462;28;20506;-90
2022/07/09 08:51:26;;;;;;;1.63;0.80;;;32.00;36.30;;;;;;5074505;28;20097;-93
2022/07/09 08:53:55;;;;;;;2.47;0.80;;;33.10;35.80;;;;;;5063951;28;20484;-89
2022/07/09 08:56:20;;;;;;;2.08;0.77;;;33.80;35.20;;;;;;5053667;28;20106;-92
2022/07/09 08:58:46;;;;;;;4.65;0.70;;;34.60;34.00;;;;;;5053380;28;20032;-92
2022/07/09 09:01:17;;;;;;;2.35;0.73;;;35.10;33.40;;;;;;5054174;28;20037;-91
2022/07/09 09:03:43;;;;;;;4.50;1.55;;;34.90;32.60;;;;;;5054312;28;20487;-91
2022/07/09 09:06:11;;;;;;;2.03;0.75;;;33.90;33.70;;;;;;5073886;28;20024;-90
2022/07/09 09:08:38;;;;;;;2.72;0.70;;;32.70;33.60;;;;;;5074563;28;20043;-89
2022/07/09 09:11:12;;;;;;;1.85;0.60;;;32.00;34.60;;;;;;5073897;28;20400;-91
2022/07/09 09:13:46;;;;;;;3.30;1.00;;;31.20;35.40;;;;;;5058522;28;20119;-90
2022/07/09 09:16:13;;;;;;;3.85;0.65;;;30.40;36.60;;;;;;5054137;28;20066;-90
2022/07/09 09:18:57;;;;;;;3.40;0.80;;;29.90;37.30;;;;;;5054066;28;20550;-91
2022/07/09 09:21:24;;;;;;;4.90;1.00;;;29.30;38.00;;;;;;5053219;28;20028;-90
2022/07/09 09:23:53;;;;;;;2.08;0.90;;;28.90;38.90;;;;;;5056135;28;20044;-92
2022/07/09 09:26:20;;;;;;;2.63;0.73;;;28.60;39.60;;;;;;5060072;28;20032;-92
2022/07/09 09:28:53;;;;;;;1.52;0.90;;;28.50;39.60;;;;;;5053998;28;20025;-91
2022/07/09 09:31:36;;;;;;;3.00;0.73;;;28.20;40.80;;;;;;5053977;28;20020;-92
2022/07/09 09:34:04;;;;;;;5.93;0.80;;;28.50;40.20;;;;;;5053256;28;20114;-92
2022/07/09 09:36:33;;;;;;;1.77;1.05;;;29.30;40.40;;;;;;5053603;28;20023;-93
2022/07/09 09:39:14;;;;;;;4.18;1.00;;;30.60;40.20;;;;;;5078073;28;20063;-91
2022/07/09 09:41:41;;;;;;;3.75;0.70;;;31.60;38.40;;;;;;5067467;28;20101;-90
2022/07/09 09:44:09;;;;;;;1.95;0.90;;;32.20;37.30;;;;;;5063700;28;20029;-91
2022/07/09 09:46:37;;;;;;;4.00;1.08;;;32.80;36.90;;;;;;5054472;28;20028;-90
2022/07/09 09:49:07;;;;;;;4.70;0.73;;;33.60;35.90;;;;;;5054054;28;20523;-90
2022/07/09 09:51:36;;;;;;;2.03;0.80;;;33.80;35.00;;;;;;5053838;28;20598;-89
2022/07/09 09:54:03;;;;;;;1.35;0.70;;;33.40;34.90;;;;;;5053574;28;20062;-89
2022/07/09 09:56:30;;;;;;;1.83;0.93;;;32.50;35.00;;;;;;5053470;28;20049;-90
2022/07/09 09:58:58;;;;;;;2.03;0.60;;;31.60;36.70;;;;;;5064946;28;20499;-90
2022/07/09 10:01:25;;;;;;;1.92;0.70;;;31.00;37.40;;;;;;5072921;28;20031;-91
2022/07/09 10:03:51;;;;;;;1.90;0.65;;;30.40;38.10;;;;;;5070834;28;20071;-88
2022/07/09 10:06:17;;;;;;;4.82;0.82;;;29.90;38.70;;;;;;5071724;28;20071;-93
2022/07/09 10:08:42;;;;;;;8.20;0.82;;;29.50;39.60;;;;;;5073932;28;20028;-90
2022/07/09 10:11:08;;;;;;;1.60;0.60;;;29.20;40.30;;;;;;5073511;28;20024;-91
2022/07/09 10:13:38;;;;;;;1.20;0.70;;;28.80;40.80;;;;;;5059384;28;20032;-91
2022/07/09 10:16:05;;;;;;;1.50;0.80;;;28.50;40.30;;;;;;5052849;28;20073;-91
2022/07/09 10:18:30;;;;;;;2.95;1.00;;;28.10;41.40;;;;;;5053282;28;20173;-91
2022/07/09 10:20:57;;;;;;;8.15;1.05;;;27.90;41.60;;;;;;5053053;28;20063;-92
2022/07/09 10:23:24;;;;;;;4.47;0.80;;;27.70;41.80;;;;;;5053626;28;20036;-92
2022/07/09 10:25:52;;;;;;;3.25;0.80;;;27.50;42.60;;;;;;5053010;28;20024;-92
2022/07/09 10:28:19;;;;;;;6.07;0.80;;;27.30;43.10;;;;;;5053168;28;20032;-92
2022/07/09 10:30:46;;;;;;;6.03;0.90;;;27.10;42.90;;;;;;5053561;28;20025;-94
2022/07/09 10:33:24;;;;;;;1.73;0.80;;;27.00;43.20;;;;;;5053903;28;20029;-93
2022/07/09 10:35:51;;;;;;;5.50;1.20;;;26.80;43.20;;;;;;5053962;28;20021;-92
2022/07/09 10:38:18;;;;;;;3.38;0.82;;;26.80;43.20;;;;;;5053598;28;20082;-95
2022/07/09 10:40:46;;;;;;;3.58;0.68;;;26.70;43.20;;;;;;5053384;28;20063;-93
2022/07/09 10:43:13;;;;;;;2.53;0.80;;;26.60;44.50;;;;;;5053394;28;20032;-92
2022/07/09 10:45:45;;;;;;;5.32;0.80;;;26.60;44.10;;;;;;5052987;28;20064;-91
2022/07/09 10:48:14;;;;;;;4.38;0.93;;;26.50;44.00;;;;;;5057000;28;20019;-93
2022/07/09 10:50:45;;;;;;;3.28;1.00;;;26.60;43.50;;;;;;5056871;28;20029;-92
2022/07/09 10:53:12;;;;;;;5.65;0.75;;;26.70;43.30;;;;;;5074732;28;20042;-93
2022/07/09 10:55:43;;;;;;;4.40;1.15;;;26.80;43.80;;;;;;5057398;28;20044;-93
2022/07/09 10:58:19;;;;;;;1.55;0.60;;;27.00;43.20;;;;;;5056461;28;20114;-90
2022/07/09 11:00:53;;;;;;;4.93;1.00;;;27.10;42.60;;;;;;5056679;28;20089;-92
2022/07/09 11:03:27;;;;;;;5.53;0.90;;;27.00;42.20;;;;;;5054949;28;20036;-95
2022/07/09 11:05:53;;;;;;;5.50;0.88;;;27.00;42.80;;;;;;5055053;28;20031;-93
2022/07/09 11:08:18;;;;;;;4.93;0.73;;;27.20;42.10;;;;;;5057253;28;20029;-92
2022/07/09 11:10:44;;;;;;;1.88;0.77;;;27.50;42.00;;;;;;5056442;28;20681;-92
2022/07/09 11:13:10;;;;;;;3.20;1.13;;;27.70;42.10;;;;;;5056386;28;20021;-92
2022/07/09 11:15:38;;;;;;;1.92;0.43;;;28.00;41.70;;;;;;5057270;28;20029;-92
2022/07/09 11:18:03;;;;;;;4.05;0.70;;;27.90;41.00;;;;;;5074249;28;20500;-91
2022/07/09 11:20:31;;;;;;;1.23;0.60;;;27.90;41.00;;;;;;5056298;28;20039;-92
2022/07/09 11:22:57;;;;;;;1.77;0.60;;;27.80;40.30;;;;;;5056434;28;20063;-92
2022/07/09 11:25:31;;;;;;;2.85;0.63;;;27.50;40.90;;;;;;5058668;28;20477;-91
2022/07/09 11:27:59;;;;;;;3.38;0.75;;;27.30;40.60;;;;;;5059188;28;20028;-93
2022/07/09 11:30:25;;;;;;;2.88;0.60;;;27.00;41.30;;;;;;5056181;28;20131;-93
2022/07/09 11:32:51;;;;;;;1.45;0.80;;;26.70;41.50;;;;;;5057188;28;20020;-92
2022/07/09 11:35:28;;;;;;;4.35;0.70;;;26.60;42.40;;;;;;5056111;28;20031;-91
2022/07/09 11:37:55;;;;;;;5.18;0.77;;;26.40;42.80;;;;;;5056086;28;20025;-91
2022/07/09 11:40:21;;;;;;;2.33;0.80;;;26.30;43.40;;;;;;5056111;28;20452;-92
2022/07/09 11:42:49;;;;;;;3.20;0.85;;;26.10;43.70;;;;;;5056050;28;20024;-92
2022/07/09 11:45:15;;;;;;;3.35;0.73;;;26.20;44.10;;;;;;5056030;28;20048;-93
2022/07/09 11:47:41;;;;;;;1.73;0.77;;;26.30;44.40;;;;;;5056673;28;20025;-92
2022/07/09 11:50:14;;;;;;;1.83;0.70;;;26.50;44.10;;;;;;5055627;28;20769;-95
2022/07/09 11:52:48;;;;;;;1.77;0.90;;;26.70;43.80;;;;;;5056071;28;20029;-93
2022/07/09 11:55:19;;;;;;;5.50;0.75;;;27.10;43.70;;;;;;5056108;28;20066;-94
2022/07/09 11:58:10;;;;;;;1.98;0.80;;;27.50;43.60;;;;;;5054627;28;20060;-95
2022/07/09 12:00:40;;;;;;;2.50;0.90;;;28.00;42.60;;;;;;5056435;28;20032;-93
2022/07/09 12:03:06;;;;;;;2.55;0.80;;;28.20;41.40;;;;;;5055707;28;20039;-92
2022/07/09 12:05:35;;;;;;;1.77;0.65;;;28.10;40.70;;;;;;5073865;28;20048;-91
2022/07/09 12:08:04;;;;;;;4.43;0.98;;;28.00;41.40;;;;;;5055876;28;20021;-91
2022/07/09 12:10:35;;;;;;;3.85;0.93;;;27.70;40.40;;;;;;5055264;28;20027;-91
2022/07/09 12:13:02;;;;;;;4.10;0.57;;;27.50;40.90;;;;;;5055408;28;20091;-92
2022/07/09 12:15:28;;;;;;;2.25;0.70;;;27.40;41.00;;;;;;5055261;28;20016;-92
2022/07/09 12:17:56;;;;;;;2.35;0.95;;;27.40;41.70;;;;;;5055134;28;20034;-91
2022/07/09 12:20:26;;;;;;;1.35;0.73;;;27.30;42.10;;;;;;5057076;28;20192;-92
2022/07/09 12:22:53;;;;;;;2.38;0.75;;;27.30;42.30;;;;;;5055068;28;20476;-92
2022/07/09 12:25:19;;;;;;;2.97;1.05;;;27.40;42.30;;;;;;5072691;28;20039;-93
2022/07/09 12:27:46;;;;;;;1.67;0.70;;;27.40;42.10;;;;;;5072945;28;20086;-92
2022/07/09 12:30:12;;;;;;;2.45;0.93;;;27.50;41.60;;;;;;5072199;28;20383;-92
2022/07/09 12:32:39;;;;;;;3.45;0.70;;;27.70;42.30;;;;;;5075347;28;20024;-94
2022/07/09 12:35:06;;;;;;;5.15;0.60;;;28.00;41.70;;;;;;5072830;28;20040;-93
2022/07/09 12:37:32;;;;;;;1.42;0.60;;;28.20;41.30;;;;;;5055799;28;20025;-92
2022/07/09 12:39:57;;;;;;;2.53;1.00;;;28.40;40.90;;;;;;5054896;28;20031;-92
2022/07/09 12:42:23;;;;;;;2.03;0.75;;;28.40;41.00;;;;;;5055515;28;20032;-94
2022/07/09 12:44:50;;;;;;;2.13;0.60;;;28.30;40.60;;;;;;5054438;28;20028;-93